sensor_id;sensor_type;location;lat;lon;timestamp;P1;durP1;ratioP1;P2;durP2;ratioP2
47483;SDS011;54076;50.322;18.650;2023-04-24T00:02:33;19.40;;;10.30;;
47483;SDS011;54076;50.322;18.650;2023-04-24T00:07:34;18.40;;;9.00;;
47483;SDS011;54076;50.322;18.650;2023-04-24T00:12:36;20.20;;;10.30;;
47483;SDS011;54076;50.322;18.650;2023-04-24T00:17:38;17.50;;;9.40;;
47483;SDS011;54076;50.322;18.650;2023-04-24T00:22:39;17.80;;;9.80;;
47483;SDS011;54076;50.322;18.650;2023-04-24T00:27:40;21.10;;;10.60;;
47483;SDS011;54076;50.322;18.650;2023-04-24T00:32:41;18.00;;;9.70;;
47483;SDS011;54076;50.322;18.650;2023-04-24T00:37:42;19.10;;;9.80;;
47483;SDS011;54076;50.322;18.650;2023-04-24T00:42:44;16.60;;;9.10;;
47483;SDS011;54076;50.322;18.650;2023-04-24T00:47:45;19.30;;;9.20;;
47483;SDS011;54076;50.322;18.650;2023-04-24T00:52:47;16.30;;;8.60;;
47483;SDS011;54076;50.322;18.650;2023-04-24T00:57:48;17.10;;;9.00;;
47483;SDS011;54076;50.322;18.650;2023-04-24T01:02:49;16.10;;;9.00;;
47483;SDS011;54076;50.322;18.650;2023-04-24T01:07:52;16.30;;;8.80;;
47483;SDS011;54076;50.322;18.650;2023-04-24T01:12:53;19.70;;;8.30;;
47483;SDS011;54076;50.322;18.650;2023-04-24T01:17:54;16.70;;;8.30;;
47483;SDS011;54076;50.322;18.650;2023-04-24T01:22:56;18.60;;;8.20;;
47483;SDS011;54076;50.322;18.650;2023-04-24T01:27:58;14.80;;;8.40;;
47483;SDS011;54076;50.322;18.650;2023-04-24T01:32:59;15.90;;;8.40;;
47483;SDS011;54076;50.322;18.650;2023-04-24T01:38:01;15.30;;;7.80;;
47483;SDS011;54076;50.322;18.650;2023-04-24T01:43:02;14.60;;;7.50;;
47483;SDS011;54076;50.322;18.650;2023-04-24T01:48:03;17.40;;;7.90;;
47483;SDS011;54076;50.322;18.650;2023-04-24T01:53:05;14.50;;;8.50;;
47483;SDS011;54076;50.322;18.650;2023-04-24T01:58:06;16.80;;;8.50;;
47483;SDS011;54076;50.322;18.650;2023-04-24T02:03:08;16.60;;;8.40;;
47483;SDS011;54076;50.322;18.650;2023-04-24T02:08:09;17.00;;;8.60;;
47483;SDS011;54076;50.322;18.650;2023-04-24T02:13:10;14.80;;;8.40;;
47483;SDS011;54076;50.322;18.650;2023-04-24T02:18:11;17.40;;;8.90;;
47483;SDS011;54076;50.322;18.650;2023-04-24T02:23:13;21.20;;;9.40;;
47483;SDS011;54076;50.322;18.650;2023-04-24T02:28:14;16.90;;;8.60;;
47483;SDS011;54076;50.322;18.650;2023-04-24T02:33:18;15.20;;;9.40;;
47483;SDS011;54076;50.322;18.650;2023-04-24T02:38:19;18.00;;;9.60;;
47483;SDS011;54076;50.322;18.650;2023-04-24T02:43:20;15.80;;;8.20;;
47483;SDS011;54076;50.322;18.650;2023-04-24T02:48:21;17.00;;;9.10;;
47483;SDS011;54076;50.322;18.650;2023-04-24T02:53:22;17.90;;;9.00;;
47483;SDS011;54076;50.322;18.650;2023-04-24T02:58:24;17.30;;;8.70;;
47483;SDS011;54076;50.322;18.650;2023-04-24T03:03:25;17.40;;;8.50;;
47483;SDS011;54076;50.322;18.650;2023-04-24T03:08:26;16.50;;;8.90;;
47483;SDS011;54076;50.322;18.650;2023-04-24T03:13:27;18.20;;;8.70;;
47483;SDS011;54076;50.322;18.650;2023-04-24T03:18:28;16.40;;;8.50;;
47483;SDS011;54076;50.322;18.650;2023-04-24T03:23:29;15.60;;;7.40;;
47483;SDS011;54076;50.322;18.650;2023-04-24T03:28:30;14.80;;;8.20;;
47483;SDS011;54076;50.322;18.650;2023-04-24T03:33:31;14.30;;;8.20;;
47483;SDS011;54076;50.322;18.650;2023-04-24T03:38:32;16.80;;;8.00;;
47483;SDS011;54076;50.322;18.650;2023-04-24T03:43:33;14.10;;;7.20;;
47483;SDS011;54076;50.322;18.650;2023-04-24T03:48:35;16.20;;;8.30;;
47483;SDS011;54076;50.322;18.650;2023-04-24T03:53:36;14.00;;;8.00;;
47483;SDS011;54076;50.322;18.650;2023-04-24T03:58:37;15.10;;;8.00;;
47483;SDS011;54076;50.322;18.650;2023-04-24T04:03:38;17.10;;;8.10;;
47483;SDS011;54076;50.322;18.650;2023-04-24T04:08:39;16.70;;;7.70;;
47483;SDS011;54076;50.322;18.650;2023-04-24T04:13:40;15.00;;;7.30;;
47483;SDS011;54076;50.322;18.650;2023-04-24T04:18:41;15.20;;;7.70;;
47483;SDS011;54076;50.322;18.650;2023-04-24T04:23:42;13.60;;;7.50;;
47483;SDS011;54076;50.322;18.650;2023-04-24T04:28:43;13.10;;;7.60;;
47483;SDS011;54076;50.322;18.650;2023-04-24T04:33:45;12.10;;;6.50;;
47483;SDS011;54076;50.322;18.650;2023-04-24T04:38:46;16.10;;;6.40;;
47483;SDS011;54076;50.322;18.650;2023-04-24T04:43:47;15.60;;;6.80;;
47483;SDS011;54076;50.322;18.650;2023-04-24T04:48:48;12.60;;;7.00;;
47483;SDS011;54076;50.322;18.650;2023-04-24T04:53:49;14.70;;;7.40;;
47483;SDS011;54076;50.322;18.650;2023-04-24T04:58:50;12.00;;;7.20;;
47483;SDS011;54076;50.322;18.650;2023-04-24T05:03:51;12.90;;;7.00;;
47483;SDS011;54076;50.322;18.650;2023-04-24T05:08:52;13.10;;;6.70;;
47483;SDS011;54076;50.322;18.650;2023-04-24T05:13:57;14.10;;;6.80;;
47483;SDS011;54076;50.322;18.650;2023-04-24T05:18:58;16.10;;;7.00;;
47483;SDS011;54076;50.322;18.650;2023-04-24T05:23:59;12.00;;;6.90;;
47483;SDS011;54076;50.322;18.650;2023-04-24T05:29:00;14.80;;;6.50;;
47483;SDS011;54076;50.322;18.650;2023-04-24T05:34:02;11.90;;;6.40;;
47483;SDS011;54076;50.322;18.650;2023-04-24T05:39:02;12.30;;;6.00;;
47483;SDS011;54076;50.322;18.650;2023-04-24T05:44:05;11.90;;;6.30;;
47483;SDS011;54076;50.322;18.650;2023-04-24T05:49:06;14.30;;;6.50;;
47483;SDS011;54076;50.322;18.650;2023-04-24T05:54:07;14.30;;;5.80;;
47483;SDS011;54076;50.322;18.650;2023-04-24T05:59:08;13.90;;;6.20;;
47483;SDS011;54076;50.322;18.650;2023-04-24T06:04:09;11.60;;;6.10;;
47483;SDS011;54076;50.322;18.650;2023-04-24T06:09:10;12.60;;;6.10;;
47483;SDS011;54076;50.322;18.650;2023-04-24T06:14:12;12.80;;;6.40;;
47483;SDS011;54076;50.322;18.650;2023-04-24T06:19:13;11.20;;;5.90;;
47483;SDS011;54076;50.322;18.650;2023-04-24T06:24:14;13.70;;;6.20;;
47483;SDS011;54076;50.322;18.650;2023-04-24T06:29:17;12.70;;;6.00;;
47483;SDS011;54076;50.322;18.650;2023-04-24T06:34:18;11.30;;;5.80;;
47483;SDS011;54076;50.322;18.650;2023-04-24T06:39:19;11.70;;;5.60;;
47483;SDS011;54076;50.322;18.650;2023-04-24T06:44:20;13.80;;;5.90;;
47483;SDS011;54076;50.322;18.650;2023-04-24T06:49:21;12.40;;;6.00;;
47483;SDS011;54076;50.322;18.650;2023-04-24T06:54:22;11.90;;;5.90;;
47483;SDS011;54076;50.322;18.650;2023-04-24T06:59:24;14.80;;;5.90;;
47483;SDS011;54076;50.322;18.650;2023-04-24T07:04:25;13.90;;;6.30;;
47483;SDS011;54076;50.322;18.650;2023-04-24T07:09:26;12.90;;;6.20;;
47483;SDS011;54076;50.322;18.650;2023-04-24T07:14:27;10.50;;;4.50;;
47483;SDS011;54076;50.322;18.650;2023-04-24T07:19:28;10.90;;;4.80;;
47483;SDS011;54076;50.322;18.650;2023-04-24T07:24:30;10.10;;;4.90;;
47483;SDS011;54076;50.322;18.650;2023-04-24T07:29:33;8.10;;;4.60;;
47483;SDS011;54076;50.322;18.650;2023-04-24T07:34:34;8.20;;;4.30;;
47483;SDS011;54076;50.322;18.650;2023-04-24T07:39:35;10.10;;;5.60;;
47483;SDS011;54076;50.322;18.650;2023-04-24T07:44:36;8.70;;;4.80;;
47483;SDS011;54076;50.322;18.650;2023-04-24T07:49:37;8.30;;;5.30;;
47483;SDS011;54076;50.322;18.650;2023-04-24T07:54:38;10.00;;;4.70;;
47483;SDS011;54076;50.322;18.650;2023-04-24T07:59:39;8.00;;;4.60;;
47483;SDS011;54076;50.322;18.650;2023-04-24T08:04:40;8.90;;;4.60;;
47483;SDS011;54076;50.322;18.650;2023-04-24T08:09:41;9.50;;;4.80;;
47483;SDS011;54076;50.322;18.650;2023-04-24T08:14:42;8.20;;;4.60;;
47483;SDS011;54076;50.322;18.650;2023-04-24T08:19:43;8.90;;;5.30;;
47483;SDS011;54076;50.322;18.650;2023-04-24T08:24:48;11.60;;;4.80;;
47483;SDS011;54076;50.322;18.650;2023-04-24T08:29:50;7.80;;;5.00;;
47483;SDS011;54076;50.322;18.650;2023-04-24T08:34:51;11.10;;;5.00;;
47483;SDS011;54076;50.322;18.650;2023-04-24T08:39:53;10.70;;;4.80;;
47483;SDS011;54076;50.322;18.650;2023-04-24T08:44:54;13.30;;;5.20;;
47483;SDS011;54076;50.322;18.650;2023-04-24T08:49:56;12.60;;;5.60;;
47483;SDS011;54076;50.322;18.650;2023-04-24T08:54:58;11.30;;;5.20;;
47483;SDS011;54076;50.322;18.650;2023-04-24T09:00:01;12.70;;;4.90;;
47483;SDS011;54076;50.322;18.650;2023-04-24T09:05:02;9.10;;;5.40;;
47483;SDS011;54076;50.322;18.650;2023-04-24T09:10:04;11.90;;;5.10;;
47483;SDS011;54076;50.322;18.650;2023-04-24T09:15:07;10.90;;;4.90;;
47483;SDS011;54076;50.322;18.650;2023-04-24T09:20:10;8.70;;;5.20;;
47483;SDS011;54076;50.322;18.650;2023-04-24T09:25:11;8.30;;;5.50;;
47483;SDS011;54076;50.322;18.650;2023-04-24T09:30:13;11.40;;;4.90;;
47483;SDS011;54076;50.322;18.650;2023-04-24T09:35:15;10.80;;;4.90;;
47483;SDS011;54076;50.322;18.650;2023-04-24T09:40:17;11.00;;;5.10;;
47483;SDS011;54076;50.322;18.650;2023-04-24T09:45:20;11.90;;;5.30;;
47483;SDS011;54076;50.322;18.650;2023-04-24T09:50:22;8.50;;;4.80;;
47483;SDS011;54076;50.322;18.650;2023-04-24T09:55:24;8.90;;;5.00;;
47483;SDS011;54076;50.322;18.650;2023-04-24T10:00:30;10.40;;;5.10;;
47483;SDS011;54076;50.322;18.650;2023-04-24T10:05:37;129.00;;;12.40;;
47483;SDS011;54076;50.322;18.650;2023-04-24T10:10:41;15.50;;;4.70;;
47483;SDS011;54076;50.322;18.650;2023-04-24T10:15:43;9.60;;;4.80;;
47483;SDS011;54076;50.322;18.650;2023-04-24T10:20:45;11.20;;;5.30;;
47483;SDS011;54076;50.322;18.650;2023-04-24T10:25:46;18.40;;;4.80;;
47483;SDS011;54076;50.322;18.650;2023-04-24T10:30:50;13.50;;;4.50;;
47483;SDS011;54076;50.322;18.650;2023-04-24T10:35:55;8.70;;;4.50;;
47483;SDS011;54076;50.322;18.650;2023-04-24T10:41:11;11.00;;;4.80;;
47483;SDS011;54076;50.322;18.650;2023-04-24T10:46:24;9.10;;;5.10;;
47483;SDS011;54076;50.322;18.650;2023-04-24T10:51:51;13.10;;;6.00;;
47483;SDS011;54076;50.322;18.650;2023-04-24T11:02:20;12.80;;;6.20;;
47483;SDS011;54076;50.322;18.650;2023-04-24T11:08:14;13.20;;;6.50;;
47483;SDS011;54076;50.322;18.650;2023-04-24T11:13:17;10.80;;;5.90;;
47483;SDS011;54076;50.322;18.650;2023-04-24T11:18:22;13.40;;;6.10;;
47483;SDS011;54076;50.322;18.650;2023-04-24T11:23:23;8.50;;;5.20;;
47483;SDS011;54076;50.322;18.650;2023-04-24T11:28:24;14.50;;;5.90;;
47483;SDS011;54076;50.322;18.650;2023-04-24T11:33:25;15.90;;;7.80;;
47483;SDS011;54076;50.322;18.650;2023-04-24T11:38:26;10.20;;;5.70;;
47483;SDS011;54076;50.322;18.650;2023-04-24T11:43:28;11.00;;;6.00;;
47483;SDS011;54076;50.322;18.650;2023-04-24T11:48:34;11.50;;;5.10;;
47483;SDS011;54076;50.322;18.650;2023-04-24T11:53:36;9.00;;;4.80;;
47483;SDS011;54076;50.322;18.650;2023-04-24T11:58:38;8.80;;;5.30;;
47483;SDS011;54076;50.322;18.650;2023-04-24T12:03:39;15.00;;;5.30;;
47483;SDS011;54076;50.322;18.650;2023-04-24T12:08:46;11.40;;;5.10;;
47483;SDS011;54076;50.322;18.650;2023-04-24T12:13:48;9.60;;;5.00;;
47483;SDS011;54076;50.322;18.650;2023-04-24T12:18:50;8.80;;;4.90;;
47483;SDS011;54076;50.322;18.650;2023-04-24T12:23:54;12.10;;;5.60;;
47483;SDS011;54076;50.322;18.650;2023-04-24T12:28:56;10.60;;;5.40;;
47483;SDS011;54076;50.322;18.650;2023-04-24T12:34:03;11.60;;;5.40;;
47483;SDS011;54076;50.322;18.650;2023-04-24T12:39:14;8.60;;;5.00;;
47483;SDS011;54076;50.322;18.650;2023-04-24T12:44:19;8.50;;;5.40;;
47483;SDS011;54076;50.322;18.650;2023-04-24T12:49:20;10.20;;;5.80;;
47483;SDS011;54076;50.322;18.650;2023-04-24T12:54:21;9.90;;;4.80;;
47483;SDS011;54076;50.322;18.650;2023-04-24T12:59:22;8.10;;;5.20;;
47483;SDS011;54076;50.322;18.650;2023-04-24T13:04:23;9.60;;;5.40;;
47483;SDS011;54076;50.322;18.650;2023-04-24T13:09:25;9.10;;;4.50;;
47483;SDS011;54076;50.322;18.650;2023-04-24T13:14:26;8.30;;;5.10;;
47483;SDS011;54076;50.322;18.650;2023-04-24T13:19:27;8.70;;;4.80;;
47483;SDS011;54076;50.322;18.650;2023-04-24T13:24:28;7.60;;;4.90;;
47483;SDS011;54076;50.322;18.650;2023-04-24T13:29:30;8.70;;;4.80;;
47483;SDS011;54076;50.322;18.650;2023-04-24T13:34:31;9.00;;;4.70;;
47483;SDS011;54076;50.322;18.650;2023-04-24T13:39:32;9.60;;;5.10;;
47483;SDS011;54076;50.322;18.650;2023-04-24T13:44:33;7.20;;;4.60;;
47483;SDS011;54076;50.322;18.650;2023-04-24T13:49:34;8.80;;;4.80;;
47483;SDS011;54076;50.322;18.650;2023-04-24T13:54:35;8.40;;;5.10;;
47483;SDS011;54076;50.322;18.650;2023-04-24T13:59:36;9.50;;;5.10;;
47483;SDS011;54076;50.322;18.650;2023-04-24T14:04:37;7.20;;;4.80;;
47483;SDS011;54076;50.322;18.650;2023-04-24T14:09:38;12.70;;;4.70;;
47483;SDS011;54076;50.322;18.650;2023-04-24T14:14:39;11.20;;;4.90;;
47483;SDS011;54076;50.322;18.650;2023-04-24T14:19:40;8.50;;;4.50;;
47483;SDS011;54076;50.322;18.650;2023-04-24T14:24:41;8.80;;;4.90;;
47483;SDS011;54076;50.322;18.650;2023-04-24T14:29:42;12.50;;;5.10;;
47483;SDS011;54076;50.322;18.650;2023-04-24T14:34:45;8.40;;;4.50;;
47483;SDS011;54076;50.322;18.650;2023-04-24T14:39:46;9.50;;;4.10;;
47483;SDS011;54076;50.322;18.650;2023-04-24T14:44:47;8.10;;;4.10;;
47483;SDS011;54076;50.322;18.650;2023-04-24T14:49:48;7.80;;;4.20;;
47483;SDS011;54076;50.322;18.650;2023-04-24T14:54:49;7.50;;;4.00;;
47483;SDS011;54076;50.322;18.650;2023-04-24T14:59:50;7.60;;;4.30;;
47483;SDS011;54076;50.322;18.650;2023-04-24T15:04:51;7.90;;;3.90;;
47483;SDS011;54076;50.322;18.650;2023-04-24T15:09:52;7.40;;;3.60;;
47483;SDS011;54076;50.322;18.650;2023-04-24T15:14:53;8.10;;;3.90;;
47483;SDS011;54076;50.322;18.650;2023-04-24T15:19:54;8.30;;;4.10;;
47483;SDS011;54076;50.322;18.650;2023-04-24T15:24:55;7.60;;;4.20;;
47483;SDS011;54076;50.322;18.650;2023-04-24T15:29:56;8.90;;;4.30;;
47483;SDS011;54076;50.322;18.650;2023-04-24T15:34:59;10.60;;;4.60;;
47483;SDS011;54076;50.322;18.650;2023-04-24T15:40:00;10.20;;;4.80;;
47483;SDS011;54076;50.322;18.650;2023-04-24T15:45:01;7.50;;;4.50;;
47483;SDS011;54076;50.322;18.650;2023-04-24T15:50:02;10.30;;;5.30;;
47483;SDS011;54076;50.322;18.650;2023-04-24T15:55:04;9.10;;;5.10;;
47483;SDS011;54076;50.322;18.650;2023-04-24T16:00:06;7.70;;;4.40;;
47483;SDS011;54076;50.322;18.650;2023-04-24T16:05:08;9.30;;;5.10;;
47483;SDS011;54076;50.322;18.650;2023-04-24T16:10:09;9.50;;;5.00;;
47483;SDS011;54076;50.322;18.650;2023-04-24T16:15:10;9.90;;;5.40;;
47483;SDS011;54076;50.322;18.650;2023-04-24T16:20:12;9.80;;;5.40;;
47483;SDS011;54076;50.322;18.650;2023-04-24T16:25:13;12.80;;;5.80;;
47483;SDS011;54076;50.322;18.650;2023-04-24T16:30:15;10.30;;;5.90;;
47483;SDS011;54076;50.322;18.650;2023-04-24T16:35:16;11.50;;;5.60;;
47483;SDS011;54076;50.322;18.650;2023-04-24T16:40:17;12.90;;;5.60;;
47483;SDS011;54076;50.322;18.650;2023-04-24T16:45:19;10.70;;;6.10;;
47483;SDS011;54076;50.322;18.650;2023-04-24T16:50:20;9.70;;;5.50;;
47483;SDS011;54076;50.322;18.650;2023-04-24T16:55:21;11.10;;;5.90;;
47483;SDS011;54076;50.322;18.650;2023-04-24T17:00:24;10.70;;;5.90;;
47483;SDS011;54076;50.322;18.650;2023-04-24T17:05:25;12.40;;;6.80;;
47483;SDS011;54076;50.322;18.650;2023-04-24T17:10:26;12.40;;;6.70;;
47483;SDS011;54076;50.322;18.650;2023-04-24T17:15:28;12.20;;;6.60;;
47483;SDS011;54076;50.322;18.650;2023-04-24T17:20:29;10.20;;;6.20;;
47483;SDS011;54076;50.322;18.650;2023-04-24T17:25:30;12.60;;;6.60;;
47483;SDS011;54076;50.322;18.650;2023-04-24T17:30:31;11.90;;;7.00;;
47483;SDS011;54076;50.322;18.650;2023-04-24T17:35:32;14.00;;;7.70;;
47483;SDS011;54076;50.322;18.650;2023-04-24T17:40:33;12.40;;;7.00;;
47483;SDS011;54076;50.322;18.650;2023-04-24T17:45:34;12.30;;;7.10;;
47483;SDS011;54076;50.322;18.650;2023-04-24T17:50:37;12.20;;;7.50;;
47483;SDS011;54076;50.322;18.650;2023-04-24T17:55:38;15.40;;;8.10;;
47483;SDS011;54076;50.322;18.650;2023-04-24T18:00:40;12.40;;;6.60;;
47483;SDS011;54076;50.322;18.650;2023-04-24T18:05:41;13.60;;;8.20;;
47483;SDS011;54076;50.322;18.650;2023-04-24T18:10:42;15.40;;;8.60;;
47483;SDS011;54076;50.322;18.650;2023-04-24T18:15:43;16.00;;;9.40;;
47483;SDS011;54076;50.322;18.650;2023-04-24T18:20:44;15.90;;;9.30;;
47483;SDS011;54076;50.322;18.650;2023-04-24T18:25:45;15.40;;;9.00;;
47483;SDS011;54076;50.322;18.650;2023-04-24T18:30:46;13.20;;;7.90;;
47483;SDS011;54076;50.322;18.650;2023-04-24T18:35:47;17.70;;;8.80;;
47483;SDS011;54076;50.322;18.650;2023-04-24T18:40:49;13.60;;;8.70;;
47483;SDS011;54076;50.322;18.650;2023-04-24T18:45:50;15.90;;;9.00;;
47483;SDS011;54076;50.322;18.650;2023-04-24T18:50:51;15.90;;;8.00;;
47483;SDS011;54076;50.322;18.650;2023-04-24T18:55:52;21.00;;;10.90;;
47483;SDS011;54076;50.322;18.650;2023-04-24T19:00:53;15.60;;;9.20;;
47483;SDS011;54076;50.322;18.650;2023-04-24T19:05:54;18.20;;;10.20;;
47483;SDS011;54076;50.322;18.650;2023-04-24T19:10:55;16.20;;;10.20;;
47483;SDS011;54076;50.322;18.650;2023-04-24T19:15:56;16.60;;;9.00;;
47483;SDS011;54076;50.322;18.650;2023-04-24T19:20:57;15.90;;;8.20;;
47483;SDS011;54076;50.322;18.650;2023-04-24T19:25:59;14.10;;;8.20;;
47483;SDS011;54076;50.322;18.650;2023-04-24T19:31:00;16.60;;;8.80;;
47483;SDS011;54076;50.322;18.650;2023-04-24T19:36:01;14.00;;;8.30;;
47483;SDS011;54076;50.322;18.650;2023-04-24T19:41:02;15.50;;;8.70;;
47483;SDS011;54076;50.322;18.650;2023-04-24T19:46:03;16.20;;;9.00;;
47483;SDS011;54076;50.322;18.650;2023-04-24T19:51:05;14.60;;;7.30;;
47483;SDS011;54076;50.322;18.650;2023-04-24T19:56:06;12.40;;;6.70;;
47483;SDS011;54076;50.322;18.650;2023-04-24T20:01:08;12.30;;;6.40;;
47483;SDS011;54076;50.322;18.650;2023-04-24T20:06:09;10.70;;;5.70;;
47483;SDS011;54076;50.322;18.650;2023-04-24T20:11:10;10.40;;;4.90;;
47483;SDS011;54076;50.322;18.650;2023-04-24T20:16:11;10.10;;;4.90;;
47483;SDS011;54076;50.322;18.650;2023-04-24T20:21:12;10.60;;;5.40;;
47483;SDS011;54076;50.322;18.650;2023-04-24T20:26:13;9.90;;;4.80;;
47483;SDS011;54076;50.322;18.650;2023-04-24T20:31:14;10.40;;;5.30;;
47483;SDS011;54076;50.322;18.650;2023-04-24T20:36:15;7.80;;;3.70;;
47483;SDS011;54076;50.322;18.650;2023-04-24T20:41:16;8.20;;;4.10;;
47483;SDS011;54076;50.322;18.650;2023-04-24T20:46:17;9.80;;;4.20;;
47483;SDS011;54076;50.322;18.650;2023-04-24T20:51:18;6.10;;;3.50;;
47483;SDS011;54076;50.322;18.650;2023-04-24T20:56:20;7.00;;;3.60;;
47483;SDS011;54076;50.322;18.650;2023-04-24T21:01:21;7.40;;;2.90;;
47483;SDS011;54076;50.322;18.650;2023-04-24T21:06:22;6.60;;;3.10;;
47483;SDS011;54076;50.322;18.650;2023-04-24T21:11:23;6.10;;;3.00;;
47483;SDS011;54076;50.322;18.650;2023-04-24T21:16:24;7.20;;;3.30;;
47483;SDS011;54076;50.322;18.650;2023-04-24T21:21:25;7.20;;;3.20;;
47483;SDS011;54076;50.322;18.650;2023-04-24T21:26:26;6.80;;;3.20;;
47483;SDS011;54076;50.322;18.650;2023-04-24T21:31:27;6.80;;;3.40;;
47483;SDS011;54076;50.322;18.650;2023-04-24T21:36:28;7.40;;;3.80;;
47483;SDS011;54076;50.322;18.650;2023-04-24T21:41:29;7.70;;;4.00;;
47483;SDS011;54076;50.322;18.650;2023-04-24T21:46:31;9.00;;;4.70;;
47483;SDS011;54076;50.322;18.650;2023-04-24T21:51:32;9.20;;;4.90;;
47483;SDS011;54076;50.322;18.650;2023-04-24T21:56:33;8.60;;;4.80;;
47483;SDS011;54076;50.322;18.650;2023-04-24T22:01:34;9.20;;;4.40;;
47483;SDS011;54076;50.322;18.650;2023-04-24T22:06:35;9.00;;;4.60;;
47483;SDS011;54076;50.322;18.650;2023-04-24T22:11:37;10.10;;;4.70;;
47483;SDS011;54076;50.322;18.650;2023-04-24T22:16:38;9.90;;;5.30;;
47483;SDS011;54076;50.322;18.650;2023-04-24T22:21:41;9.90;;;5.40;;
47483;SDS011;54076;50.322;18.650;2023-04-24T22:26:42;9.60;;;5.30;;
47483;SDS011;54076;50.322;18.650;2023-04-24T22:31:44;13.00;;;5.50;;
47483;SDS011;54076;50.322;18.650;2023-04-24T22:36:45;8.30;;;4.80;;
47483;SDS011;54076;50.322;18.650;2023-04-24T22:48:32;10.20;;;4.20;;
47483;SDS011;54076;50.322;18.650;2023-04-24T22:53:34;10.00;;;4.40;;
47483;SDS011;54076;50.322;18.650;2023-04-24T22:58:36;8.50;;;4.30;;
47483;SDS011;54076;50.322;18.650;2023-04-24T23:03:37;8.90;;;4.10;;
47483;SDS011;54076;50.322;18.650;2023-04-24T23:08:38;8.40;;;4.00;;
47483;SDS011;54076;50.322;18.650;2023-04-24T23:13:39;11.00;;;4.70;;
47483;SDS011;54076;50.322;18.650;2023-04-24T23:18:40;9.60;;;4.40;;
47483;SDS011;54076;50.322;18.650;2023-04-24T23:23:41;8.90;;;4.80;;
47483;SDS011;54076;50.322;18.650;2023-04-24T23:28:42;9.00;;;4.40;;
47483;SDS011;54076;50.322;18.650;2023-04-24T23:33:43;7.40;;;3.80;;
47483;SDS011;54076;50.322;18.650;2023-04-24T23:38:44;10.00;;;4.50;;
47483;SDS011;54076;50.322;18.650;2023-04-24T23:43:46;8.30;;;4.10;;
47483;SDS011;54076;50.322;18.650;2023-04-24T23:48:47;10.30;;;4.40;;
47483;SDS011;54076;50.322;18.650;2023-04-24T23:53:48;9.00;;;4.60;;
47483;SDS011;54076;50.322;18.650;2023-04-24T23:58:49;9.90;;;5.00;;
